Time;durP1;ratioP1;P1;durP2;ratioP2;P2;SDS_P1;SDS_P2;PMS_P1;PMS_P2;Temp;Humidity;BMP_temperature;BMP_pressure;BME280_temperature;BME280_humidity;BME280_pressure;Samples;Min_cycle;Max_cycle;Signal;HPM_P1;HPM_P2
2023/01/02 00:01:46;;;;;;;2.70;2.00;;;13.60;99.90;;;;;;6080262;23;20573;-66
2023/01/02 00:04:13;;;;;;;3.20;1.73;;;13.60;99.90;;;;;;6086307;23;20448;-66
2023/01/02 00:06:40;;;;;;;2.17;1.97;;;13.60;99.90;;;;;;6078829;23;20819;-66
2023/01/02 00:09:08;;;;;;;3.53;2.20;;;13.60;99.90;;;;;;6074292;23;20667;-66
2023/01/02 00:11:36;;;;;;;2.20;2.00;;;13.60;99.90;;;;;;6082435;23;20524;-64
2023/01/02 00:14:03;;;;;;;2.37;1.90;;;13.60;99.90;;;;;;6079564;23;20465;-65
2023/01/02 00:16:31;;;;;;;1.67;1.57;;;13.60;99.90;;;;;;6084278;23;20977;-66
2023/01/02 00:18:58;;;;;;;2.60;1.90;;;13.60;99.90;;;;;;6082668;23;20459;-67
2023/01/02 00:21:25;;;;;;;1.83;1.73;;;13.50;99.90;;;;;;6083627;23;20439;-66
2023/01/02 00:23:52;;;;;;;2.60;2.40;;;13.50;99.90;;;;;;6078218;23;20441;-66
2023/01/02 00:26:19;;;;;;;2.90;2.10;;;13.50;99.90;;;;;;6082774;23;20821;-65
2023/01/02 00:28:46;;;;;;;2.40;2.20;;;13.50;99.90;;;;;;6079767;23;20502;-65
2023/01/02 00:31:14;;;;;;;2.17;1.90;;;13.50;99.90;;;;;;6077046;23;20441;-65
2023/01/02 00:33:42;;;;;;;2.07;1.90;;;13.50;99.90;;;;;;6080600;23;20479;-65
2023/01/02 00:36:11;;;;;;;3.03;1.87;;;13.50;99.90;;;;;;6085250;23;21000;-65
2023/01/02 00:38:39;;;;;;;2.60;1.70;;;13.60;99.90;;;;;;6074027;23;20455;-65
2023/01/02 00:41:06;;;;;;;3.63;1.80;;;13.60;99.90;;;;;;6082140;23;20492;-65
2023/01/02 00:43:33;;;;;;;2.27;1.50;;;13.60;99.90;;;;;;6081923;23;20442;-66
2023/01/02 00:46:01;;;;;;;3.20;1.77;;;13.70;99.90;;;;;;6084534;23;21432;-68
2023/01/02 00:48:27;;;;;;;2.53;2.00;;;13.70;99.90;;;;;;6083571;23;20888;-65
2023/01/02 00:50:56;;;;;;;1.80;1.70;;;13.80;99.90;;;;;;6079390;23;20532;-66
2023/01/02 00:53:23;;;;;;;2.57;1.70;;;13.80;99.90;;;;;;6088567;23;20508;-67
2023/01/02 00:55:50;;;;;;;3.93;1.80;;;13.80;99.90;;;;;;6075295;23;20495;-66
2023/01/02 00:58:17;;;;;;;3.00;2.00;;;13.80;99.90;;;;;;6085865;23;20461;-65
2023/01/02 01:00:44;;;;;;;2.40;1.83;;;13.80;99.90;;;;;;6078085;23;20499;-65
2023/01/02 01:03:11;;;;;;;3.00;2.00;;;13.80;99.90;;;;;;6068039;23;20441;-66
2023/01/02 01:05:39;;;;;;;1.90;1.80;;;13.80;99.90;;;;;;6074264;23;20977;-66
2023/01/02 01:08:08;;;;;;;2.80;2.53;;;13.80;99.90;;;;;;6084231;23;20543;-66
2023/01/02 01:10:36;;;;;;;3.20;2.70;;;13.80;99.90;;;;;;6080559;23;20442;-66
2023/01/02 01:13:04;;;;;;;2.23;2.00;;;13.70;99.90;;;;;;6081455;23;20432;-65
2023/01/02 01:15:32;;;;;;;2.63;2.20;;;13.70;99.90;;;;;;6075962;23;20456;-66
2023/01/02 01:17:59;;;;;;;2.80;2.30;;;13.60;99.90;;;;;;6080606;23;20546;-66
2023/01/02 01:20:26;;;;;;;3.40;2.23;;;13.60;99.90;;;;;;6084108;23;20447;-65
2023/01/02 01:22:54;;;;;;;2.80;1.97;;;13.60;99.90;;;;;;6078481;23;20451;-66
2023/01/02 01:25:22;;;;;;;2.37;2.17;;;13.60;99.90;;;;;;6083454;23;20554;-65
2023/01/02 01:27:52;;;;;;;1.87;1.70;;;13.50;99.90;;;;;;6077801;23;20489;-65
2023/01/02 01:30:19;;;;;;;2.00;1.80;;;13.60;99.90;;;;;;6080571;23;20494;-65
2023/01/02 01:32:46;;;;;;;3.33;2.13;;;13.60;99.90;;;;;;6077755;23;20998;-66
2023/01/02 01:35:13;;;;;;;2.20;2.00;;;13.60;99.90;;;;;;6097308;23;20831;-66
2023/01/02 01:37:41;;;;;;;3.23;2.10;;;13.60;99.90;;;;;;6085892;23;20466;-66
2023/01/02 01:40:08;;;;;;;3.17;2.07;;;13.60;99.90;;;;;;6092293;23;20441;-66
2023/01/02 01:42:36;;;;;;;2.47;1.80;;;13.60;99.90;;;;;;6110780;23;20436;-66
2023/01/02 01:45:12;;;;;;;2.97;2.00;;;13.70;99.90;;;;;;6093642;23;20463;-66
2023/01/02 01:47:41;;;;;;;2.50;1.97;;;13.70;99.90;;;;;;6089143;23;20464;-66
2023/01/02 01:50:11;;;;;;;2.97;2.07;;;13.70;99.90;;;;;;6088110;23;20520;-66
2023/01/02 01:52:44;;;;;;;4.00;2.20;;;13.70;99.90;;;;;;6088328;23;20825;-66
2023/01/02 01:55:15;;;;;;;2.00;1.80;;;13.60;99.90;;;;;;6102857;23;20530;-66
2023/01/02 01:57:49;;;;;;;2.70;2.10;;;13.50;99.90;;;;;;6089536;23;21028;-64
2023/01/02 02:00:17;;;;;;;2.50;2.10;;;13.50;99.90;;;;;;6081781;23;20497;-65
2023/01/02 02:02:46;;;;;;;2.40;2.20;;;13.40;99.90;;;;;;6098325;23;20461;-65
2023/01/02 02:05:19;;;;;;;2.80;2.10;;;13.30;99.90;;;;;;6093522;23;20536;-66
2023/01/02 02:08:03;;;;;;;2.30;2.10;;;13.20;99.90;;;;;;6090485;23;20454;-66
2023/01/02 02:10:30;;;;;;;3.03;2.00;;;13.10;99.90;;;;;;6097798;23;20434;-66
2023/01/02 02:12:59;;;;;;;2.37;2.17;;;13.10;99.90;;;;;;6102136;23;20943;-66
2023/01/02 02:15:35;;;;;;;2.30;2.10;;;13.10;99.90;;;;;;6089148;23;20583;-66
2023/01/02 02:18:11;;;;;;;2.10;1.90;;;13.00;99.90;;;;;;6110494;23;20540;-66
2023/01/02 02:20:48;;;;;;;3.50;1.80;;;13.00;99.90;;;;;;6114059;23;20785;-66
2023/01/02 02:23:55;;;;;;;2.20;2.00;;;12.90;99.90;;;;;;6103420;23;20966;-66
2023/01/02 02:26:53;;;;;;;2.97;2.10;;;12.80;99.90;;;;;;6089735;23;20471;-67
2023/01/02 02:30:03;;;;;;;2.83;1.80;;;12.70;99.90;;;;;;6083143;23;20563;-67
2023/01/02 02:32:43;;;;;;;2.67;2.40;;;12.50;99.90;;;;;;6087262;23;21021;-66
2023/01/02 02:35:18;;;;;;;4.13;1.90;;;12.40;99.90;;;;;;6089215;23;20222;-66
2023/01/02 02:37:54;;;;;;;2.30;2.10;;;12.30;99.90;;;;;;6090093;23;20450;-66
2023/01/02 02:40:34;;;;;;;2.23;2.03;;;12.20;99.90;;;;;;6079027;23;20530;-66
2023/01/02 02:43:10;;;;;;;3.83;2.20;;;12.20;99.90;;;;;;6105880;23;20814;-66
2023/01/02 02:45:48;;;;;;;2.40;2.20;;;12.10;99.90;;;;;;6093300;23;20475;-66
2023/01/02 02:48:25;;;;;;;3.63;2.45;;;12.10;99.90;;;;;;6109276;23;20231;-66
2023/01/02 02:51:00;;;;;;;2.90;2.20;;;12.00;99.90;;;;;;6109011;23;20194;-67
2023/01/02 02:53:32;;;;;;;2.17;2.00;;;12.00;99.90;;;;;;6091931;23;20184;-65
2023/01/02 02:56:03;;;;;;;2.25;2.05;;;11.90;99.90;;;;;;6097751;23;20214;-66
2023/01/02 02:58:32;;;;;;;2.95;2.30;;;11.80;99.90;;;;;;6102548;23;20571;-66
2023/01/02 03:01:06;;;;;;;2.20;1.83;;;11.80;99.90;;;;;;6083873;23;20200;-65
2023/01/02 03:03:33;;;;;;;2.72;2.05;;;11.80;99.90;;;;;;6085163;23;20188;-65
2023/01/02 03:06:14;;;;;;;3.00;2.47;;;11.80;99.90;;;;;;6091174;23;20281;-65
2023/01/02 03:08:45;;;;;;;2.35;2.15;;;11.80;99.90;;;;;;6088051;23;20269;-65
2023/01/02 03:11:12;;;;;;;3.17;2.10;;;11.70;99.90;;;;;;6095723;23;20183;-66
2023/01/02 03:13:50;;;;;;;2.53;1.88;;;11.70;99.90;;;;;;6092778;23;20653;-66
2023/01/02 03:16:27;;;;;;;2.45;2.25;;;11.70;99.90;;;;;;6102213;23;20282;-66
2023/01/02 03:18:59;;;;;;;2.47;2.28;;;11.70;99.90;;;;;;6101112;23;20253;-65
2023/01/02 03:21:33;;;;;;;2.45;2.10;;;11.70;99.90;;;;;;6109690;23;20275;-65
2023/01/02 03:24:05;;;;;;;2.20;2.00;;;11.70;99.90;;;;;;6102372;23;20266;-65
2023/01/02 03:26:34;;;;;;;2.65;2.45;;;11.80;99.90;;;;;;6099988;23;20235;-64
2023/01/02 03:29:05;;;;;;;2.50;2.00;;;11.80;99.90;;;;;;6096261;23;20216;-66
2023/01/02 03:31:39;;;;;;;2.50;2.30;;;11.90;99.90;;;;;;6105683;23;20215;-66
2023/01/02 03:34:10;;;;;;;2.40;2.10;;;12.00;99.90;;;;;;6087087;23;20192;-65
2023/01/02 03:36:39;;;;;;;2.97;2.00;;;12.10;99.90;;;;;;6110365;23;20192;-66
2023/01/02 03:39:10;;;;;;;3.17;2.00;;;12.20;99.90;;;;;;6107727;23;20286;-66
2023/01/02 03:41:42;;;;;;;2.42;2.20;;;12.30;99.90;;;;;;6097007;23;20442;-65
2023/01/02 03:44:12;;;;;;;3.33;2.10;;;12.40;99.90;;;;;;6092200;23;20579;-65
2023/01/02 03:46:45;;;;;;;2.93;2.13;;;12.50;99.90;;;;;;6087371;23;20476;-65
2023/01/02 03:49:18;;;;;;;2.10;1.90;;;12.60;99.90;;;;;;6090658;23;20493;-65
2023/01/02 03:51:45;;;;;;;6.43;2.17;;;12.70;99.90;;;;;;6098633;23;20837;-65
2023/01/02 03:54:14;;;;;;;3.87;2.40;;;12.80;99.90;;;;;;6097755;23;20869;-66
2023/01/02 03:56:53;;;;;;;2.20;2.00;;;12.80;99.90;;;;;;6091228;23;20942;-65
2023/01/02 03:59:30;;;;;;;3.20;2.27;;;12.90;99.90;;;;;;6107025;23;20522;-65
2023/01/02 04:02:04;;;;;;;2.93;2.10;;;12.90;99.90;;;;;;6106218;23;20441;-66
2023/01/02 04:04:38;;;;;;;3.50;2.20;;;13.00;99.90;;;;;;6083913;23;20530;-66
2023/01/02 04:07:10;;;;;;;2.13;1.80;;;13.00;99.90;;;;;;6082467;23;20550;-66
2023/01/02 04:09:39;;;;;;;3.93;1.90;;;13.10;99.90;;;;;;6099342;23;20849;-66
2023/01/02 04:12:11;;;;;;;2.77;2.23;;;13.20;99.90;;;;;;6095737;23;20522;-66
2023/01/02 04:14:42;;;;;;;1.87;1.60;;;13.30;99.90;;;;;;6082022;23;20445;-66
2023/01/02 04:17:11;;;;;;;2.23;1.83;;;13.40;99.90;;;;;;6086483;23;20548;-66
2023/01/02 04:19:43;;;;;;;2.90;1.93;;;13.50;99.90;;;;;;6088998;23;20447;-66
2023/01/02 04:22:17;;;;;;;3.80;1.73;;;13.60;99.90;;;;;;6093273;23;20472;-66
2023/01/02 04:24:52;;;;;;;2.20;1.70;;;13.60;99.90;;;;;;6103771;23;20476;-66
2023/01/02 04:27:24;;;;;;;2.40;1.60;;;13.60;99.90;;;;;;6088217;23;20844;-66
2023/01/02 04:29:51;;;;;;;2.40;1.63;;;13.70;99.90;;;;;;6101258;23;20470;-66
2023/01/02 04:32:25;;;;;;;2.00;1.80;;;13.70;99.90;;;;;;6101339;23;20521;-65
2023/01/02 04:34:54;;;;;;;4.27;1.73;;;13.70;99.90;;;;;;6079955;23;20470;-66
2023/01/02 04:37:29;;;;;;;3.07;1.73;;;13.80;99.90;;;;;;6085227;23;20967;-65
2023/01/02 04:40:02;;;;;;;3.50;1.93;;;13.80;99.90;;;;;;6094288;23;20519;-65
2023/01/02 04:42:29;;;;;;;2.90;1.60;;;13.70;99.90;;;;;;6088256;23;20458;-65
2023/01/02 04:44:56;;;;;;;4.30;1.60;;;13.70;99.90;;;;;;6090931;23;20437;-65
2023/01/02 04:47:24;;;;;;;2.37;1.67;;;13.60;99.90;;;;;;6087506;23;20559;-65
2023/01/02 04:49:52;;;;;;;2.20;2.00;;;13.50;99.90;;;;;;6118504;23;20442;-65
2023/01/02 04:52:19;;;;;;;3.20;2.00;;;13.50;99.90;;;;;;6101487;23;20466;-64
2023/01/02 04:54:46;;;;;;;2.97;1.90;;;13.40;99.90;;;;;;6113558;23;20858;-65
2023/01/02 04:57:13;;;;;;;2.00;1.80;;;13.20;99.90;;;;;;6091843;23;20464;-65
2023/01/02 04:59:40;;;;;;;1.73;1.60;;;13.20;99.90;;;;;;6107580;23;20522;-65
2023/01/02 05:02:07;;;;;;;1.70;1.60;;;13.20;99.90;;;;;;6084385;23;20883;-65
2023/01/02 05:04:35;;;;;;;1.90;1.60;;;13.10;99.90;;;;;;6094422;23;20431;-65
2023/01/02 05:07:03;;;;;;;2.30;1.73;;;13.10;99.90;;;;;;6076987;23;20471;-65
2023/01/02 05:09:30;;;;;;;1.83;1.70;;;13.00;99.90;;;;;;6084756;23;21024;-65
2023/01/02 05:11:57;;;;;;;3.63;1.73;;;13.00;99.90;;;;;;6103043;23;20493;-65
2023/01/02 05:14:24;;;;;;;2.53;1.90;;;13.00;99.90;;;;;;6106226;23;20526;-65
2023/01/02 05:16:51;;;;;;;4.23;1.70;;;13.00;99.90;;;;;;6094943;23;20436;-65
2023/01/02 05:19:18;;;;;;;2.63;1.60;;;13.00;99.90;;;;;;6089135;23;20962;-65
2023/01/02 05:24:32;;;;;;;2.37;1.73;;;13.00;99.90;;;;;;6089767;23;20931;-65
2023/01/02 05:26:59;;;;;;;2.87;1.70;;;12.90;99.90;;;;;;6086125;23;20987;-65
2023/01/02 05:29:26;;;;;;;3.53;2.27;;;12.90;99.90;;;;;;6089633;23;20529;-65
2023/01/02 05:31:53;;;;;;;4.07;1.87;;;13.00;99.90;;;;;;6090264;23;20838;-65
2023/01/02 05:34:20;;;;;;;2.67;1.70;;;12.90;99.90;;;;;;6086710;23;20444;-65
2023/01/02 05:36:48;;;;;;;1.90;1.50;;;12.90;99.90;;;;;;6089260;23;20518;-66
2023/01/02 05:39:15;;;;;;;5.37;2.00;;;12.90;99.90;;;;;;6085784;23;20466;-67
2023/01/02 05:41:42;;;;;;;2.60;1.70;;;12.90;99.90;;;;;;6098977;23;20468;-67
2023/01/02 05:44:10;;;;;;;2.13;1.60;;;13.00;99.90;;;;;;6088522;23;20441;-66
2023/01/02 05:46:38;;;;;;;4.33;2.00;;;13.00;99.90;;;;;;6098722;23;20553;-66
2023/01/02 05:49:06;;;;;;;3.10;2.07;;;12.90;99.90;;;;;;6081446;23;20468;-66
2023/01/02 05:51:33;;;;;;;2.23;1.67;;;12.90;99.90;;;;;;6100484;23;20464;-66
2023/01/02 05:54:02;;;;;;;2.77;2.00;;;12.90;99.90;;;;;;6090005;23;20464;-66
2023/01/02 05:56:31;;;;;;;2.00;1.53;;;13.00;99.90;;;;;;6092124;23;20477;-65
2023/01/02 05:58:58;;;;;;;2.87;1.90;;;13.00;99.90;;;;;;6095746;23;20488;-65
2023/01/02 06:01:27;;;;;;;2.33;1.70;;;13.00;99.90;;;;;;6087140;23;20858;-66
2023/01/02 06:03:56;;;;;;;1.93;1.53;;;13.00;99.90;;;;;;6090555;23;20439;-66
2023/01/02 06:06:25;;;;;;;2.80;2.27;;;13.00;99.90;;;;;;6086887;23;20796;-66
2023/01/02 06:08:52;;;;;;;4.13;3.83;;;13.10;99.90;;;;;;6088144;23;20487;-65
2023/01/02 06:11:21;;;;;;;3.70;3.40;;;13.30;99.90;;;;;;6081080;23;20455;-66
2023/01/02 06:13:48;;;;;;;4.50;3.20;;;13.10;99.90;;;;;;6088664;23;20528;-66
2023/01/02 06:16:15;;;;;;;4.87;3.53;;;13.10;99.90;;;;;;6101420;23;20450;-66
2023/01/02 06:18:42;;;;;;;2.73;2.47;;;13.10;99.90;;;;;;6098783;23;21041;-66
2023/01/02 06:21:11;;;;;;;3.17;2.37;;;13.00;99.90;;;;;;6089343;23;20436;-65
2023/01/02 06:23:38;;;;;;;2.10;1.80;;;12.90;99.90;;;;;;6090976;23;20438;-66
2023/01/02 06:26:07;;;;;;;3.03;2.10;;;12.80;99.90;;;;;;6087740;23;20464;-66
2023/01/02 06:28:36;;;;;;;2.63;1.87;;;12.80;99.90;;;;;;6104709;23;20565;-66
2023/01/02 06:31:04;;;;;;;2.83;2.07;;;12.80;99.90;;;;;;6091010;23;20558;-65
2023/01/02 06:33:32;;;;;;;2.77;2.00;;;12.80;99.90;;;;;;6107336;23;20442;-65
2023/01/02 06:36:00;;;;;;;2.33;1.63;;;12.70;99.90;;;;;;6093399;23;20477;-71
2023/01/02 06:38:27;;;;;;;5.40;2.03;;;12.70;99.90;;;;;;6092558;23;21311;-64
2023/01/02 06:40:55;;;;;;;3.37;2.10;;;12.70;99.90;;;;;;6085761;23;20519;-76
2023/01/02 06:43:23;;;;;;;1.73;1.63;;;12.70;99.90;;;;;;6078416;23;20439;-65
2023/01/02 06:45:51;;;;;;;3.07;2.30;;;12.70;99.90;;;;;;6083852;23;20922;-66
2023/01/02 06:48:19;;;;;;;2.57;2.17;;;12.70;99.90;;;;;;6090142;23;20482;-65
2023/01/02 06:50:46;;;;;;;3.90;1.87;;;12.70;99.90;;;;;;6077454;23;20970;-65
2023/01/02 06:53:13;;;;;;;4.30;2.27;;;12.70;99.90;;;;;;6076014;23;20518;-65
2023/01/02 06:55:49;;;;;;;3.10;2.00;;;12.70;99.90;;;;;;6075449;23;20973;-75
2023/01/02 06:58:16;;;;;;;2.63;1.90;;;12.70;99.90;;;;;;6074624;23;20542;-74
2023/01/02 07:00:43;;;;;;;2.90;2.20;;;12.70;99.90;;;;;;6073593;23;20519;-67
2023/01/02 07:03:12;;;;;;;3.63;2.20;;;12.80;99.90;;;;;;6064309;23;20506;-66
2023/01/02 07:05:39;;;;;;;2.47;2.27;;;12.80;99.90;;;;;;6067850;23;20436;-66
2023/01/02 07:08:06;;;;;;;2.47;2.00;;;12.90;99.90;;;;;;6065032;23;21034;-66
2023/01/02 07:10:33;;;;;;;3.60;2.50;;;12.90;99.90;;;;;;6062827;23;20437;-66
2023/01/02 07:13:00;;;;;;;2.30;2.10;;;12.90;99.90;;;;;;6062587;23;20433;-69
2023/01/02 07:15:27;;;;;;;3.90;2.10;;;12.90;99.90;;;;;;6068251;23;20902;-67
2023/01/02 07:17:55;;;;;;;2.80;2.00;;;12.90;99.90;;;;;;6071367;23;20461;-67
2023/01/02 07:20:23;;;;;;;3.67;2.50;;;12.80;99.90;;;;;;6063586;23;20514;-66
2023/01/02 07:22:50;;;;;;;2.20;2.00;;;12.80;99.90;;;;;;6069868;23;20491;-67
2023/01/02 07:25:17;;;;;;;3.33;2.40;;;12.80;99.90;;;;;;6070785;23;20443;-67
2023/01/02 07:27:44;;;;;;;4.53;2.43;;;12.80;99.90;;;;;;6067536;23;20483;-66
2023/01/02 07:30:12;;;;;;;3.87;2.10;;;12.70;99.90;;;;;;6070529;23;20766;-65
2023/01/02 07:32:39;;;;;;;3.27;2.00;;;12.70;99.90;;;;;;6073079;23;20436;-66
2023/01/02 07:35:08;;;;;;;2.23;1.80;;;12.70;99.90;;;;;;6075679;23;20978;-66
2023/01/02 07:37:36;;;;;;;2.80;2.10;;;12.70;99.90;;;;;;6068280;23;21036;-67
2023/01/02 07:40:03;;;;;;;3.83;2.53;;;12.60;99.90;;;;;;6071740;23;20532;-66
2023/01/02 07:42:30;;;;;;;3.20;2.10;;;12.60;99.90;;;;;;6068813;23;20435;-66
2023/01/02 07:44:57;;;;;;;6.40;1.97;;;12.60;99.90;;;;;;6074010;23;20804;-67
2023/01/02 07:47:24;;;;;;;2.22;1.85;;;12.60;99.90;;;;;;6076232;23;20471;-66
2023/01/02 07:49:51;;;;;;;5.00;2.10;;;12.50;99.90;;;;;;6073752;23;20185;-67
2023/01/02 07:52:19;;;;;;;3.30;2.15;;;12.30;99.90;;;;;;6070680;23;20434;-67
2023/01/02 07:54:47;;;;;;;3.67;2.20;;;12.20;99.90;;;;;;6072007;23;20184;-67
2023/01/02 07:57:14;;;;;;;2.70;1.90;;;12.10;99.90;;;;;;6073985;23;20209;-65
2023/01/02 07:59:43;;;;;;;3.28;2.30;;;12.00;99.90;;;;;;6079092;23;20298;-67
2023/01/02 08:02:11;;;;;;;4.90;2.20;;;11.90;99.90;;;;;;6073652;23;20196;-71
2023/01/02 08:04:38;;;;;;;3.15;2.10;;;11.90;99.90;;;;;;6069222;23;20291;-69
2023/01/02 08:07:05;;;;;;;4.50;2.22;;;11.90;99.90;;;;;;6072509;23;20247;-77
2023/01/02 08:09:32;;;;;;;8.73;5.20;;;11.80;99.90;;;;;;6075236;23;20188;-68
2023/01/02 08:12:00;;;;;;;7.07;4.00;;;11.80;99.90;;;;;;6078039;23;20520;-72
2023/01/02 08:14:27;;;;;;;2.60;1.93;;;11.90;99.90;;;;;;6077835;23;20848;-71
2023/01/02 08:16:54;;;;;;;4.82;1.85;;;12.00;99.90;;;;;;6073627;23;20436;-69
2023/01/02 08:19:21;;;;;;;3.70;2.10;;;12.10;99.90;;;;;;6073502;23;20184;-68
2023/01/02 08:21:48;;;;;;;3.60;2.50;;;12.10;99.90;;;;;;6080154;23;20188;-67
2023/01/02 08:24:15;;;;;;;3.33;2.33;;;12.20;99.90;;;;;;6071989;23;20211;-67
2023/01/02 08:26:42;;;;;;;2.30;1.70;;;12.20;99.90;;;;;;6074372;23;20188;-68
2023/01/02 08:29:11;;;;;;;6.25;2.30;;;12.20;99.90;;;;;;6072995;23;20522;-67
2023/01/02 08:31:37;;;;;;;3.50;2.40;;;12.30;99.90;;;;;;6069790;23;20189;-68
2023/01/02 08:34:04;;;;;;;3.57;2.40;;;12.30;99.90;;;;;;6074409;23;20435;-66
2023/01/02 08:36:31;;;;;;;3.20;2.33;;;12.00;99.90;;;;;;6072068;23;20439;-66
2023/01/02 08:38:58;;;;;;;3.63;2.92;;;12.30;99.90;;;;;;6073243;23;20663;-66
2023/01/02 08:41:32;;;;;;;4.00;2.27;;;12.30;99.90;;;;;;6080935;23;20258;-67
2023/01/02 08:44:00;;;;;;;3.10;2.50;;;12.40;99.90;;;;;;6075713;23;20514;-68
2023/01/02 08:46:30;;;;;;;4.13;2.60;;;12.40;99.90;;;;;;6074090;23;20432;-67
2023/01/02 08:48:57;;;;;;;4.83;2.70;;;12.50;99.90;;;;;;6088604;23;20521;-67
2023/01/02 08:51:25;;;;;;;3.33;2.70;;;12.50;99.90;;;;;;6074464;23;20438;-65
2023/01/02 08:53:52;;;;;;;3.50;2.80;;;12.50;99.90;;;;;;6088745;23;20192;-65
2023/01/02 08:56:21;;;;;;;7.60;2.37;;;12.60;99.90;;;;;;6088237;23;20446;-66
2023/01/02 08:58:53;;;;;;;3.37;2.20;;;12.70;99.90;;;;;;6088461;23;20459;-66
2023/01/02 09:01:21;;;;;;;3.93;2.40;;;12.70;99.90;;;;;;6107984;23;20437;-66
2023/01/02 09:03:50;;;;;;;3.20;2.47;;;12.70;99.90;;;;;;6097002;23;20484;-66
2023/01/02 09:06:18;;;;;;;3.77;2.20;;;12.70;99.90;;;;;;6095659;23;20196;-66
2023/01/02 09:08:45;;;;;;;3.57;2.70;;;12.70;99.90;;;;;;6089408;23;20510;-77
2023/01/02 09:11:13;;;;;;;2.97;2.53;;;12.80;99.90;;;;;;6090500;23;20450;-67
2023/01/02 09:13:40;;;;;;;3.60;2.47;;;12.80;99.90;;;;;;6097551;23;20522;-66
2023/01/02 09:16:09;;;;;;;5.70;2.77;;;12.90;99.90;;;;;;6083293;23;20538;-67
2023/01/02 09:18:36;;;;;;;3.00;2.00;;;13.00;99.90;;;;;;6090254;23;20465;-67
2023/01/02 09:21:05;;;;;;;3.80;2.90;;;13.40;99.90;;;;;;6082835;23;20468;-66
2023/01/02 09:23:33;;;;;;;4.47;2.27;;;13.80;99.90;;;;;;6087542;23;20460;-74
2023/01/02 09:26:02;;;;;;;4.30;3.10;;;14.00;99.90;;;;;;6089347;23;20945;-66
2023/01/02 09:28:31;;;;;;;5.27;2.50;;;14.30;99.90;;;;;;6088997;23;20466;-66
2023/01/02 09:30:58;;;;;;;4.80;2.87;;;14.60;99.90;;;;;;6089562;23;20937;-67
2023/01/02 09:33:25;;;;;;;3.77;3.00;;;14.90;99.90;;;;;;6090920;23;20480;-66
2023/01/02 09:35:52;;;;;;;4.07;3.20;;;15.30;99.90;;;;;;6090227;23;20470;-66
2023/01/02 09:38:21;;;;;;;5.27;2.90;;;15.60;99.90;;;;;;6090415;23;20530;-66
2023/01/02 09:40:51;;;;;;;7.10;3.23;;;15.70;99.90;;;;;;6090513;23;20925;-66
2023/01/02 09:43:27;;;;;;;5.00;3.27;;;15.80;99.90;;;;;;6090713;23;20430;-66
2023/01/02 09:45:56;;;;;;;3.77;2.80;;;15.90;99.90;;;;;;6089147;23;20434;-66
2023/01/02 09:48:25;;;;;;;5.87;2.80;;;15.80;99.90;;;;;;6089695;23;20470;-66
2023/01/02 09:50:53;;;;;;;5.93;3.17;;;15.70;99.90;;;;;;6089989;23;21016;-66
2023/01/02 09:53:22;;;;;;;5.27;3.23;;;15.60;99.90;;;;;;6090713;23;20468;-66
2023/01/02 09:55:56;;;;;;;3.13;2.83;;;15.50;99.90;;;;;;6090292;23;20513;-66
2023/01/02 09:58:36;;;;;;;5.90;2.90;;;15.40;99.90;;;;;;6090068;23;20964;-66
2023/01/02 10:01:05;;;;;;;5.50;2.73;;;15.50;99.90;;;;;;6089889;23;20427;-66
2023/01/02 10:03:40;;;;;;;5.07;2.80;;;15.60;99.90;;;;;;6088719;23;21026;-66
2023/01/02 10:06:13;;;;;;;2.90;2.33;;;15.70;99.90;;;;;;6090315;23;20418;-65
2023/01/02 10:08:52;;;;;;;4.63;2.90;;;15.80;99.90;;;;;;6090524;23;20474;-66
2023/01/02 10:11:29;;;;;;;4.97;2.90;;;16.00;99.90;;;;;;6087428;23;20437;-66
2023/01/02 10:14:00;;;;;;;5.97;3.80;;;16.20;99.90;;;;;;6089922;23;20411;-66
2023/01/02 10:16:31;;;;;;;6.73;3.30;;;16.40;99.90;;;;;;6090174;23;20998;-66
2023/01/02 10:19:01;;;;;;;3.53;2.30;;;16.60;99.90;;;;;;6061844;23;20426;-66
2023/01/02 10:21:32;;;;;;;3.90;2.70;;;17.00;99.90;;;;;;6073139;23;20479;-66
2023/01/02 10:24:04;;;;;;;4.87;2.97;;;17.40;99.90;;;;;;6089191;23;20514;-66
2023/01/02 10:26:35;;;;;;;3.57;2.10;;;17.90;99.90;;;;;;6090054;23;20770;-65
2023/01/02 10:29:10;;;;;;;4.47;2.40;;;18.20;99.90;;;;;;6090629;23;20470;-66
2023/01/02 10:31:42;;;;;;;4.57;2.50;;;18.50;99.90;;;;;;6090313;23;20775;-66
2023/01/02 10:34:16;;;;;;;3.10;2.23;;;18.70;99.90;;;;;;6090087;23;20496;-66
2023/01/02 10:36:45;;;;;;;4.43;2.40;;;18.90;99.90;;;;;;6089986;23;20461;-66
2023/01/02 10:39:16;;;;;;;4.07;2.40;;;18.90;99.90;;;;;;6089016;23;20917;-67
2023/01/02 10:41:48;;;;;;;3.13;2.30;;;18.70;99.90;;;;;;6091586;23;20499;-67
2023/01/02 10:44:24;;;;;;;2.90;2.40;;;18.70;99.90;;;;;;6091745;23;20437;-67
2023/01/02 10:46:51;;;;;;;3.93;2.33;;;18.50;99.90;;;;;;6091431;23;20457;-67
2023/01/02 10:49:20;;;;;;;5.17;2.00;;;18.50;99.90;;;;;;6091442;23;20466;-66
2023/01/02 10:51:53;;;;;;;5.20;2.40;;;18.50;99.90;;;;;;6091763;23;20426;-67
2023/01/02 10:54:22;;;;;;;5.57;2.53;;;18.50;99.90;;;;;;6090224;23;20951;-67
2023/01/02 10:56:53;;;;;;;4.07;2.23;;;18.50;99.90;;;;;;6091393;23;20780;-67
2023/01/02 10:59:23;;;;;;;4.20;2.30;;;18.40;99.90;;;;;;6091688;23;20449;-67
2023/01/02 11:01:53;;;;;;;4.47;2.30;;;18.60;99.90;;;;;;6077453;23;20517;-67
2023/01/02 11:04:23;;;;;;;3.23;2.27;;;18.90;99.90;;;;;;6066495;23;20429;-67
2023/01/02 11:06:54;;;;;;;4.63;2.30;;;19.20;99.90;;;;;;6084259;23;20465;-66
2023/01/02 11:09:25;;;;;;;3.00;2.50;;;19.50;99.90;;;;;;6086947;23;20557;-67
2023/01/02 11:11:54;;;;;;;3.90;2.47;;;19.80;99.90;;;;;;6091995;23;20513;-67
2023/01/02 11:14:23;;;;;;;3.20;2.17;;;20.20;99.90;;;;;;6091214;23;20442;-67
2023/01/02 11:16:51;;;;;;;5.23;2.33;;;20.50;99.90;;;;;;6091648;23;20526;-67
2023/01/02 11:19:20;;;;;;;2.30;1.83;;;20.70;99.90;;;;;;6091070;23;20509;-66
2023/01/02 11:21:48;;;;;;;4.03;2.53;;;20.70;99.20;;;;;;6090919;23;20491;-67
2023/01/02 11:24:21;;;;;;;4.97;2.47;;;20.80;98.60;;;;;;6091452;23;20437;-67
2023/01/02 11:26:50;;;;;;;3.73;2.20;;;20.30;98.60;;;;;;6091018;23;20530;-66
2023/01/02 11:29:21;;;;;;;4.30;2.07;;;19.90;98.20;;;;;;6091139;23;20462;-66
2023/01/02 11:31:51;;;;;;;3.60;1.80;;;19.40;98.30;;;;;;6091634;23;20985;-66
2023/01/02 11:34:20;;;;;;;5.63;2.30;;;19.00;98.80;;;;;;6091443;23;20430;-66
2023/01/02 11:37:02;;;;;;;5.07;2.30;;;18.90;99.50;;;;;;6089808;23;20457;-66
2023/01/02 11:39:31;;;;;;;4.23;2.20;;;18.60;99.70;;;;;;6090094;23;20454;-66
2023/01/02 11:45:03;;;;;;;4.90;2.40;;;18.60;99.90;;;;;;6091210;23;20438;-66
2023/01/02 11:47:33;;;;;;;4.87;2.20;;;18.70;99.90;;;;;;6090884;23;20541;-66
2023/01/02 11:50:01;;;;;;;4.30;2.47;;;18.70;99.50;;;;;;6090679;23;20537;-66
2023/01/02 11:52:34;;;;;;;5.87;2.27;;;18.60;99.60;;;;;;6089769;23;20514;-66
2023/01/02 11:55:10;;;;;;;5.70;2.20;;;18.40;99.20;;;;;;6091055;23;20991;-66
2023/01/02 11:57:44;;;;;;;5.47;2.13;;;18.20;99.30;;;;;;6090966;23;20456;-66
2023/01/02 12:00:16;;;;;;;4.60;2.60;;;18.20;99.40;;;;;;6090725;23;20424;-66
2023/01/02 12:02:45;;;;;;;2.40;1.67;;;17.90;99.20;;;;;;6091208;23;20860;-66
2023/01/02 12:05:15;;;;;;;4.03;2.67;;;17.70;99.40;;;;;;6090244;23;20509;-66
2023/01/02 12:07:45;;;;;;;5.90;2.30;;;17.70;99.90;;;;;;6091050;23;20446;-66
2023/01/02 12:10:26;;;;;;;3.63;2.20;;;17.60;99.90;;;;;;6091337;23;20489;-66
2023/01/02 12:13:09;;;;;;;4.73;1.97;;;17.60;99.90;;;;;;6090856;23;20485;-66
2023/01/02 12:16:03;;;;;;;3.90;2.20;;;17.60;99.90;;;;;;6091139;23;20776;-66
2023/01/02 12:18:42;;;;;;;3.57;2.03;;;17.60;99.90;;;;;;6090744;23;20474;-66
2023/01/02 12:21:20;;;;;;;5.40;2.37;;;17.40;99.90;;;;;;6089948;23;20444;-66
2023/01/02 12:24:15;;;;;;;3.53;2.00;;;17.40;99.90;;;;;;6091378;23;20458;-66
2023/01/02 12:26:50;;;;;;;3.23;1.87;;;17.30;99.90;;;;;;6090047;23;20970;-66
2023/01/02 12:29:50;;;;;;;6.87;2.17;;;17.40;99.90;;;;;;6090563;23;20458;-66
2023/01/02 12:32:58;;;;;;;4.00;2.03;;;17.50;99.90;;;;;;6090414;23;20426;-66
2023/01/02 12:36:12;;;;;;;5.07;2.33;;;17.50;99.90;;;;;;5973445;23;20933;-66
2023/01/02 12:38:56;;;;;;;2.77;1.90;;;17.60;99.90;;;;;;6090861;23;20457;-66
2023/01/02 12:41:28;;;;;;;3.37;2.00;;;17.70;99.90;;;;;;6091230;23;20450;-66
2023/01/02 12:44:10;;;;;;;3.57;1.93;;;17.80;99.90;;;;;;6091331;23;20472;-66
2023/01/02 12:47:02;;;;;;;4.53;2.53;;;17.70;99.90;;;;;;6090826;23;20518;-66
2023/01/02 12:49:52;;;;;;;7.60;3.00;;;17.70;99.90;;;;;;6088893;23;20484;-66
2023/01/02 12:52:34;;;;;;;5.67;2.70;;;17.70;99.90;;;;;;6090568;23;20497;-66
2023/01/02 12:55:16;;;;;;;3.93;2.20;;;17.70;99.90;;;;;;6090686;23;21028;-66
2023/01/02 12:57:52;;;;;;;3.83;2.53;;;17.80;99.90;;;;;;6090656;23;21005;-66
2023/01/02 13:00:45;;;;;;;5.47;2.50;;;17.80;99.90;;;;;;6090902;23;20433;-66
2023/01/02 13:04:00;;;;;;;9.20;2.60;;;17.90;99.90;;;;;;6090878;23;20436;-66
2023/01/02 13:06:44;;;;;;;5.70;2.70;;;18.10;99.90;;;;;;6037228;23;20445;-66
2023/01/02 13:09:15;;;;;;;5.10;2.10;;;18.30;99.90;;;;;;6090573;23;20547;-66
2023/01/02 13:11:47;;;;;;;4.70;2.40;;;18.50;99.90;;;;;;6090392;23;20445;-66
2023/01/02 13:14:20;;;;;;;8.47;2.70;;;18.70;99.90;;;;;;6090883;23;20796;-66